createdAt,value
2022-10-05T00:01:00.161Z,100778.91
2022-10-05T00:06:11.481Z,100789.88
2022-10-05T00:11:17.318Z,100779.90
2022-10-05T00:16:21.835Z,100792.40
2022-10-05T00:21:27.717Z,100791.48
2022-10-05T00:26:33.792Z,100779.45
2022-10-05T00:31:37.265Z,100779.00
2022-10-05T00:36:40.621Z,100777.95
2022-10-05T00:42:02.260Z,100777.08
2022-10-05T00:47:35.161Z,100776.56
2022-10-05T00:52:56.802Z,100776.28
2022-10-05T00:58:28.171Z,100765.45
2022-10-05T01:03:53.842Z,100749.98
2022-10-05T01:09:24.767Z,100743.74
2022-10-05T01:14:52.637Z,100746.88
2022-10-05T01:20:10.924Z,100744.73
2022-10-05T01:25:39.700Z,100731.52
2022-10-05T01:31:01.309Z,100726.23
2022-10-05T01:36:29.520Z,100728.98
2022-10-05T01:42:09.679Z,100740.12
2022-10-05T01:47:22.188Z,100739.26
2022-10-05T01:52:51.283Z,100743.11
2022-10-05T01:58:07.235Z,100740.88
2022-10-05T02:03:35.919Z,100729.42
2022-10-05T02:08:47.120Z,100726.89
2022-10-05T02:14:07.579Z,100722.10
2022-10-05T02:19:36.600Z,100715.39
2022-10-05T02:24:46.056Z,100704.60
2022-10-05T02:29:53.563Z,100698.95
2022-10-05T02:35:02.941Z,100702.86
2022-10-05T02:40:38.845Z,100699.91
2022-10-05T02:46:03.690Z,100693.09
2022-10-05T02:51:23.500Z,100700.13
2022-10-05T02:56:56.561Z,100713.91
2022-10-05T03:02:13.285Z,100700.42
2022-10-05T03:07:23.746Z,100703.67
2022-10-05T03:12:51.099Z,100714.27
2022-10-05T03:18:06.536Z,100705.33
2022-10-05T03:23:33.442Z,100702.30
2022-10-05T03:29:00.616Z,100699.77
2022-10-05T03:34:09.626Z,100689.42
2022-10-05T03:39:12.710Z,100692.20
2022-10-05T03:44:38.353Z,100688.62
2022-10-05T03:50:13.721Z,100685.32
2022-10-05T03:55:35.343Z,100676.69
2022-10-05T04:00:40.931Z,100678.90
2022-10-05T04:06:01.334Z,100678.02
2022-10-05T04:11:17.569Z,100671.40
2022-10-05T04:16:29.801Z,100671.89
2022-10-05T04:21:38.800Z,100666.78
2022-10-05T04:26:57.852Z,100665.58
2022-10-05T04:32:16.180Z,100668.89
2022-10-05T04:37:27.539Z,100664.67
2022-10-05T04:42:39.812Z,100667.62
2022-10-05T04:47:55.433Z,100662.69
2022-10-05T04:53:04.523Z,100659.38
2022-10-05T04:58:07.535Z,100660.11
2022-10-05T05:03:16.589Z,100650.59
2022-10-05T05:08:58.407Z,100642.81
2022-10-05T05:14:17.115Z,100637.61
2022-10-05T05:19:35.799Z,100642.92
2022-10-05T05:24:55.659Z,100648.47
2022-10-05T05:30:12.690Z,100649.11
2022-10-05T05:35:25.255Z,100649.80
2022-10-05T05:40:34.160Z,100648.71
2022-10-05T05:45:42.722Z,100649.25
2022-10-05T05:51:08.942Z,100658.08
2022-10-05T05:56:21.158Z,100664.64
2022-10-05T06:01:33.531Z,100664.34
2022-10-05T06:06:42.806Z,100667.79
2022-10-05T06:11:55.455Z,100654.90
2022-10-05T06:17:05.528Z,100638.75
2022-10-05T06:22:29.660Z,100624.02
2022-10-05T06:28:03.998Z,100624.55
2022-10-05T06:33:50.593Z,100625.01
2022-10-05T06:39:16.020Z,100620.13
2022-10-05T06:44:49.345Z,100632.86
2022-10-05T06:50:14.299Z,100624.13
2022-10-05T06:55:51.247Z,100631.73
2022-10-05T07:01:11.130Z,100629.27
2022-10-05T07:06:44.466Z,100629.71
2022-10-05T07:12:12.554Z,100622.33
2022-10-05T07:18:07.173Z,100602.99
2022-10-05T07:23:20.106Z,100596.45
2022-10-05T07:29:11.032Z,100598.92
2022-10-05T07:34:22.839Z,100589.46
2022-10-05T07:40:00.595Z,100589.24
2022-10-05T07:45:23.847Z,100603.77
2022-10-05T07:50:39.022Z,100612.36
2022-10-05T07:55:50.425Z,100601.60
2022-10-05T08:00:53.528Z,100600.54
2022-10-05T08:05:59.837Z,100602.29
2022-10-05T08:11:29.642Z,100581.88
2022-10-05T08:16:38.168Z,100583.89
2022-10-05T08:22:11.801Z,100594.27
2022-10-05T08:27:33.948Z,100601.34
2022-10-05T08:33:03.164Z,100605.55
2022-10-05T08:38:18.864Z,100607.15
2022-10-05T08:43:55.151Z,100612.98
2022-10-05T08:49:42.389Z,100611.09
2022-10-05T08:54:54.918Z,100605.02
2022-10-05T09:00:04.741Z,100607.84
2022-10-05T09:05:45.228Z,100611.26
2022-10-05T09:11:09.460Z,100599.04
2022-10-05T09:16:31.922Z,100597.73
2022-10-05T09:21:57.413Z,100588.52
2022-10-05T09:27:03.632Z,100578.58
2022-10-05T09:32:21.582Z,100594.44
2022-10-05T09:37:44.963Z,100602.86
2022-10-05T09:42:58.431Z,100605.72
2022-10-05T09:48:22.567Z,100612.59
2022-10-05T09:53:47.530Z,100606.20
2022-10-05T09:58:55.091Z,100602.39
2022-10-05T10:04:21.841Z,100601.08
2022-10-05T10:09:40.703Z,100609.45
2022-10-05T10:15:15.531Z,100600.55
2022-10-05T10:20:49.158Z,100600.21
2022-10-05T10:26:28.357Z,100593.48
2022-10-05T10:31:47.964Z,100602.20
2022-10-05T10:37:32.979Z,100614.08
2022-10-05T10:42:57.003Z,100615.84
2022-10-05T10:48:19.993Z,100614.12
2022-10-05T10:53:49.066Z,100604.35
2022-10-05T10:59:11.428Z,100583.23
2022-10-05T11:04:40.232Z,100574.59
2022-10-05T11:10:02.182Z,100569.89
2022-10-05T11:15:22.254Z,100554.55
2022-10-05T11:20:58.456Z,100551.70
2022-10-05T11:26:27.880Z,100553.13
2022-10-05T11:31:34.734Z,100555.11
2022-10-05T11:36:57.464Z,100552.23
2022-10-05T11:42:22.989Z,100549.06
2022-10-05T11:47:38.261Z,100549.66
2022-10-05T11:53:02.668Z,100551.01
2022-10-05T11:58:12.064Z,100551.10
2022-10-05T12:03:29.071Z,100553.06
2022-10-05T12:09:11.165Z,100548.98
2022-10-05T12:14:37.834Z,100547.52
2022-10-05T12:19:49.570Z,100546.54
2022-10-05T12:25:30.528Z,100546.19
2022-10-05T12:31:15.379Z,100541.84
2022-10-05T12:36:35.922Z,100534.73
2022-10-05T12:42:29.360Z,100538.54
2022-10-05T12:47:38.250Z,100547.49
2022-10-05T12:53:15.863Z,100547.52
2022-10-05T12:58:46.108Z,100546.58
2022-10-05T13:04:11.023Z,100545.31
2022-10-05T13:09:44.850Z,100546.52
2022-10-05T13:15:01.883Z,100541.45
2022-10-05T13:20:37.756Z,100538.27
2022-10-05T13:25:53.974Z,100535.51
2022-10-05T13:31:28.272Z,100532.34
2022-10-05T13:36:44.518Z,100538.30
2022-10-05T13:42:00.218Z,100539.48
2022-10-05T13:47:27.901Z,100535.25
2022-10-05T13:52:45.238Z,100537.87
2022-10-05T13:58:06.161Z,100537.85
2022-10-05T14:03:31.649Z,100543.45
2022-10-05T14:08:46.543Z,100537.72
2022-10-05T14:13:50.605Z,100532.27
2022-10-05T14:19:05.999Z,100529.27
2022-10-05T14:24:45.188Z,100519.42
2022-10-05T14:30:01.916Z,100509.77
2022-10-05T14:35:13.071Z,100517.53
2022-10-05T14:40:29.398Z,100529.56
2022-10-05T14:45:34.193Z,100527.09
2022-10-05T14:51:12.972Z,100524.05
2022-10-05T14:56:22.946Z,100520.13
2022-10-05T15:01:31.916Z,100517.14
2022-10-05T15:06:55.443Z,100517.13
2022-10-05T15:12:02.769Z,100520.26
2022-10-05T15:17:18.474Z,100515.39
2022-10-05T15:22:50.672Z,100512.29
2022-10-05T15:28:49.003Z,100518.70
2022-10-05T15:34:19.105Z,100512.21
2022-10-05T15:39:40.842Z,100504.17
2022-10-05T15:45:07.894Z,100509.88
2022-10-05T15:50:24.965Z,100506.79
2022-10-05T15:55:43.619Z,100510.89
2022-10-05T16:01:06.428Z,100496.88
2022-10-05T16:06:43.897Z,100496.03
2022-10-05T16:11:59.568Z,100495.68
2022-10-05T16:17:29.220Z,100493.34
2022-10-05T16:22:43.526Z,100493.68
2022-10-05T16:28:20.743Z,100498.18
2022-10-05T16:33:53.971Z,100498.79
2022-10-05T16:39:22.531Z,100508.23
2022-10-05T16:44:53.671Z,100508.21
2022-10-05T16:50:28.112Z,100510.77
2022-10-05T16:55:43.082Z,100502.64
2022-10-05T17:01:07.130Z,100502.41
2022-10-05T17:06:23.501Z,100508.16
2022-10-05T17:11:43.398Z,100509.98
2022-10-05T17:16:56.391Z,100507.73
2022-10-05T17:22:25.164Z,100511.52
2022-10-05T17:27:51.309Z,100510.66
2022-10-05T17:32:58.753Z,100510.81
2022-10-05T17:38:22.466Z,100504.80
2022-10-05T17:43:34.288Z,100501.91
2022-10-05T17:48:37.413Z,100497.66
2022-10-05T17:54:02.659Z,100498.41
2022-10-05T17:59:10.142Z,100488.73
2022-10-05T18:04:26.812Z,100480.33
2022-10-05T18:09:34.807Z,100475.02
2022-10-05T18:14:58.352Z,100476.64
2022-10-05T18:20:20.486Z,100474.67
2022-10-05T18:25:35.540Z,100470.53
2022-10-05T18:31:05.225Z,100468.44
2022-10-05T18:36:37.878Z,100466.72
2022-10-05T18:42:03.998Z,100468.42
2022-10-05T18:47:28.598Z,100464.40
2022-10-05T18:53:13.166Z,100462.29
2022-10-05T18:58:42.794Z,100454.25
2022-10-05T19:03:56.166Z,100449.75
2022-10-05T19:09:17.774Z,100448.80
2022-10-05T19:14:53.998Z,100448.60
2022-10-05T19:20:14.343Z,100447.08
2022-10-05T19:25:47.994Z,100447.44
2022-10-05T19:31:11.692Z,100445.92
2022-10-05T19:36:15.304Z,100440.33
2022-10-05T19:41:22.964Z,100434.88
2022-10-05T19:46:56.770Z,100433.89
2022-10-05T19:52:00.970Z,100437.96
2022-10-05T19:57:17.644Z,100436.36
2022-10-05T20:02:26.372Z,100442.34
2022-10-05T20:07:30.587Z,100445.79
2022-10-05T20:12:57.914Z,100451.50
2022-10-05T20:18:54.906Z,100453.13
2022-10-05T20:24:19.921Z,100453.41
2022-10-05T20:29:23.678Z,100455.77
2022-10-05T20:34:27.329Z,100458.15
2022-10-05T20:39:31.883Z,100458.77
2022-10-05T20:44:37.771Z,100458.83
2022-10-05T20:49:42.209Z,100453.82
2022-10-05T20:59:54.551Z,100448.76
2022-10-05T21:04:57.804Z,100444.16
2022-10-05T21:10:07.308Z,100443.61
2022-10-05T21:15:13.059Z,100448.00
2022-10-05T21:20:16.510Z,100450.35
2022-10-05T21:25:19.893Z,100449.39
2022-10-05T21:30:22.915Z,100445.03
2022-10-05T21:35:26.719Z,100445.19
2022-10-05T21:40:29.968Z,100441.80
2022-10-05T21:45:32.993Z,100435.09
2022-10-05T21:50:38.283Z,100436.27
2022-10-05T21:55:45.644Z,100432.52
2022-10-05T22:00:49.907Z,100439.70
2022-10-05T22:05:53.090Z,100437.30
2022-10-05T22:10:56.366Z,100437.67
2022-10-05T22:16:00.274Z,100433.84
2022-10-05T22:21:06.546Z,100432.10
2022-10-05T22:26:13.153Z,100437.05
2022-10-05T22:31:18.582Z,100437.23
2022-10-05T22:36:22.043Z,100439.23
2022-10-05T22:41:25.651Z,100439.64
2022-10-05T22:46:28.897Z,100441.80
2022-10-05T22:51:31.879Z,100442.40
2022-10-05T22:56:35.380Z,100444.58
2022-10-05T23:01:38.749Z,100440.22
2022-10-05T23:06:42.882Z,100441.93
2022-10-05T23:11:52.336Z,100442.81
2022-10-05T23:16:55.924Z,100443.48
2022-10-05T23:21:59.113Z,100442.48
2022-10-05T23:27:02.208Z,100439.42
2022-10-05T23:32:05.418Z,100439.70
2022-10-05T23:37:08.936Z,100441.77
2022-10-05T23:42:14.805Z,100438.89
2022-10-05T23:47:17.910Z,100435.73
2022-10-05T23:52:21.528Z,100435.77
2022-10-05T23:57:25.452Z,100432.16
